Time;durP1;ratioP1;P1;durP2;ratioP2;P2;SDS_P1;SDS_P2;PMS_P1;PMS_P2;Temp;Humidity;BMP_temperature;BMP_pressure;BME280_temperature;BME280_humidity;BME280_pressure;Samples;Min_cycle;Max_cycle;Signal;HPM_P1;HPM_P2
2023/07/08 00:01:13;;;;;;;3.55;2.30;;;;;;;25.07;22.97;101237.75;5009878;28;20285;-62
2023/07/08 00:03:42;;;;;;;4.05;2.53;;;;;;;25.04;22.77;101227.00;5006205;28;20046;-61
2023/07/08 00:06:14;;;;;;;4.75;2.58;;;;;;;25.06;23.40;101226.78;5010321;28;20044;-62
2023/07/08 00:08:42;;;;;;;4.05;2.75;;;;;;;25.00;23.30;101222.06;5008939;28;20050;-62
2023/07/08 00:11:11;;;;;;;3.78;2.60;;;;;;;25.04;23.51;101228.94;5009279;28;20092;-60
2023/07/08 00:13:40;;;;;;;4.00;2.50;;;;;;;25.01;23.69;101224.63;5008546;28;20704;-62
2023/07/08 00:16:11;;;;;;;3.85;2.60;;;;;;;25.02;23.52;101225.50;5010144;28;20054;-62
2023/07/08 00:18:40;;;;;;;4.10;2.35;;;;;;;25.00;23.69;101222.06;4998448;28;20054;-58
2023/07/08 00:21:15;;;;;;;4.32;2.53;;;;;;;24.98;23.45;101219.47;5009837;28;20129;-63
2023/07/08 00:23:46;;;;;;;3.67;2.47;;;;;;;24.96;23.60;101223.59;5009291;28;20497;-62
2023/07/08 00:26:19;;;;;;;3.88;2.67;;;;;;;24.96;23.53;101220.78;5008304;28;20073;-62
2023/07/08 00:28:48;;;;;;;3.72;2.58;;;;;;;24.92;23.66;101222.28;5022997;28;20042;-62
2023/07/08 00:31:15;;;;;;;4.28;2.67;;;;;;;24.92;23.74;101227.88;5023904;28;20045;-62
2023/07/08 00:33:45;;;;;;;3.80;2.42;;;;;;;24.91;23.55;101224.19;5023136;28;20528;-62
2023/07/08 00:36:15;;;;;;;4.47;2.50;;;;;;;24.90;23.84;101219.69;5024231;28;20072;-60
2023/07/08 00:38:45;;;;;;;3.85;2.40;;;;;;;24.86;23.73;101222.06;5008868;28;20460;-63
2023/07/08 00:41:17;;;;;;;4.40;2.80;;;;;;;24.88;23.54;101216.25;5024702;28;20042;-62
2023/07/08 00:43:47;;;;;;;;;;;;;;;24.54;24.09;101209.03;5008914;28;20549;-60
2023/07/08 00:46:25;;;;;;;4.00;2.65;;;;;;;24.81;23.91;101210.66;5007696;28;19999;-62
2023/07/08 00:49:01;;;;;;;3.67;2.55;;;;;;;24.82;24.18;101217.97;5008006;28;20132;-59
2023/07/08 00:51:28;;;;;;;4.18;2.63;;;;;;;24.80;23.94;101219.31;5007547;28;20081;-60
2023/07/08 00:53:56;;;;;;;4.65;2.70;;;;;;;24.79;24.14;101224.03;5009202;28;20296;-61
2023/07/08 00:56:27;;;;;;;3.50;2.40;;;;;;;24.80;24.24;101228.56;5009034;28;20049;-61
2023/07/08 00:58:59;;;;;;;5.28;3.00;;;;;;;24.79;24.29;101226.84;5008708;28;20038;-61
2023/07/08 01:01:30;;;;;;;3.92;2.47;;;;;;;24.77;24.35;101220.59;5008762;28;20050;-61
2023/07/08 01:04:03;;;;;;;4.40;2.70;;;;;;;24.76;24.46;101215.22;5023400;28;20038;-60
2023/07/08 01:06:39;;;;;;;4.07;2.35;;;;;;;24.75;24.26;101213.50;5023250;28;20092;-61
2023/07/08 01:09:10;;;;;;;4.45;2.63;;;;;;;24.73;24.68;101207.28;5008237;28;20053;-62
2023/07/08 01:11:40;;;;;;;3.63;2.20;;;;;;;24.72;24.44;101211.16;5008234;28;20053;-61
2023/07/08 01:14:13;;;;;;;4.50;3.00;;;;;;;24.71;24.25;101207.50;5007427;28;20054;-61
2023/07/08 01:16:41;;;;;;;4.95;3.10;;;;;;;24.66;24.82;101214.78;5006596;28;20076;-61
2023/07/08 01:19:17;;;;;;;4.50;2.63;;;;;;;24.69;24.76;101201.25;5008024;28;20185;-60
2023/07/08 01:21:59;;;;;;;4.40;2.58;;;;;;;24.68;24.73;101207.06;5007861;28;20587;-62
2023/07/08 01:24:30;;;;;;;4.22;2.45;;;;;;;24.64;24.62;101208.59;5006437;28;20046;-60
2023/07/08 01:26:59;;;;;;;4.18;2.75;;;;;;;24.63;24.75;101209.66;5007420;28;20057;-60
2023/07/08 01:29:27;;;;;;;4.05;2.60;;;;;;;24.62;24.79;101203.19;5007008;28;20046;-60
2023/07/08 01:31:56;;;;;;;4.13;2.80;;;;;;;24.59;25.02;101192.44;5007837;28;20259;-60
2023/07/08 01:34:24;;;;;;;4.50;2.90;;;;;;;24.58;24.95;101190.72;5008216;28;20096;-62
2023/07/08 01:36:56;;;;;;;3.58;2.50;;;;;;;24.60;25.22;101196.94;5007504;28;20100;-62
2023/07/08 01:39:26;;;;;;;4.18;2.83;;;;;;;24.58;25.19;101193.50;5008541;28;20056;-62
2023/07/08 01:41:54;;;;;;;4.82;3.00;;;;;;;24.54;25.13;101195.03;5007455;28;20422;-61
2023/07/08 01:44:24;;;;;;;5.30;3.10;;;;;;;24.54;25.15;101192.25;5022521;28;20112;-62
2023/07/08 01:46:54;;;;;;;3.83;2.70;;;;;;;24.53;25.44;101193.31;5022291;28;20085;-62
2023/07/08 01:49:23;;;;;;;5.95;2.83;;;;;;;24.49;25.24;101192.88;5007383;28;20133;-60
2023/07/08 01:51:51;;;;;;;5.03;3.15;;;;;;;24.47;25.23;101192.25;5007054;28;20050;-63
2023/07/08 01:54:21;;;;;;;4.88;2.97;;;;;;;24.47;25.40;101189.47;5007759;28;20057;-61
2023/07/08 01:56:51;;;;;;;4.78;2.80;;;;;;;24.43;25.42;101190.97;5007311;28;20045;-60
2023/07/08 01:59:19;;;;;;;4.57;2.85;;;;;;;24.42;25.77;101186.44;5006624;28;20137;-61
2023/07/08 02:01:47;;;;;;;4.35;2.80;;;;;;;24.42;25.80;101188.38;5022291;28;20049;-62
2023/07/08 02:04:15;;;;;;;4.07;2.80;;;;;;;24.39;25.80;101184.09;5006619;28;20046;-62
2023/07/08 02:06:43;;;;;;;4.68;3.03;;;;;;;24.39;25.77;101184.09;5006709;28;20077;-62
2023/07/08 02:09:13;;;;;;;4.78;3.15;;;;;;;24.37;26.01;101177.00;5022714;28;20049;-61
2023/07/08 02:11:42;;;;;;;5.30;3.03;;;;;;;24.38;25.97;101173.97;5021879;28;20389;-60
2023/07/08 02:14:10;;;;;;;4.55;3.00;;;;;;;24.35;25.86;101177.19;5006450;28;20058;-62
2023/07/08 02:16:38;;;;;;;4.75;3.28;;;;;;;24.34;26.13;101175.44;5007464;28;20042;-62
2023/07/08 02:19:06;;;;;;;5.05;3.15;;;;;;;24.32;26.22;101177.59;5007721;28;20045;-62
2023/07/08 02:21:34;;;;;;;5.43;3.05;;;;;;;24.32;26.45;101168.38;5004362;28;20141;-62
2023/07/08 02:24:02;;;;;;;4.82;3.00;;;;;;;24.30;25.99;101173.31;5007805;28;20038;-62
2023/07/08 02:26:31;;;;;;;5.03;3.08;;;;;;;24.29;26.39;101163.19;5006899;28;20132;-62
2023/07/08 02:29:01;;;;;;;6.15;2.92;;;;;;;24.30;26.31;101164.94;5007232;28;20056;-60
2023/07/08 02:31:31;;;;;;;4.45;2.92;;;;;;;24.24;26.10;101161.03;5007767;28;20179;-62
2023/07/08 02:33:58;;;;;;;4.50;2.80;;;;;;;24.24;26.66;101163.84;5008203;28;20046;-62
2023/07/08 02:36:26;;;;;;;4.78;2.95;;;;;;;24.22;26.49;101159.56;5007820;28;20042;-61
2023/07/08 02:38:54;;;;;;;4.72;3.08;;;;;;;24.21;26.78;101157.84;5005018;28;20084;-59
2023/07/08 02:41:22;;;;;;;4.85;3.00;;;;;;;24.19;26.79;101160.84;5007616;28;20505;-62
2023/07/08 02:43:50;;;;;;;4.60;3.08;;;;;;;24.17;26.81;101153.75;5006592;28;20068;-62
2023/07/08 02:46:19;;;;;;;4.05;2.75;;;;;;;24.18;26.98;101161.91;5008032;28;20056;-61
2023/07/08 02:48:47;;;;;;;4.78;3.22;;;;;;;24.14;26.78;101163.44;5008308;28;20038;-61
2023/07/08 02:51:15;;;;;;;5.20;3.10;;;;;;;24.13;27.04;101168.19;5010783;28;20041;-62
2023/07/08 02:53:43;;;;;;;4.80;3.00;;;;;;;24.11;27.09;101161.94;5011017;28;20136;-60
2023/07/08 02:56:11;;;;;;;5.50;3.22;;;;;;;24.10;27.07;101167.72;5009595;28;20054;-62
2023/07/08 02:58:39;;;;;;;4.78;3.00;;;;;;;24.09;26.93;101172.47;5009115;28;20133;-60
2023/07/08 03:01:07;;;;;;;6.38;3.75;;;;;;;24.07;27.28;101168.19;5025804;28;20496;-61
2023/07/08 03:03:37;;;;;;;5.03;3.42;;;;;;;24.08;27.24;101172.69;5010338;28;20049;-62
2023/07/08 03:06:06;;;;;;;6.20;3.60;;;;;;;24.04;27.46;101171.41;5011011;28;20052;-61
2023/07/08 03:08:34;;;;;;;4.22;3.03;;;;;;;24.02;27.29;101165.16;5010023;28;20133;-61
2023/07/08 03:11:04;;;;;;;5.63;2.92;;;;;;;24.02;27.34;101162.38;5011084;28;20056;-62
2023/07/08 03:13:33;;;;;;;5.70;3.40;;;;;;;23.98;27.04;101161.09;5009823;28;20140;-61
2023/07/08 03:16:08;;;;;;;5.35;3.67;;;;;;;23.96;27.33;101158.50;5010761;28;20563;-60
2023/07/08 03:18:45;;;;;;;4.80;3.42;;;;;;;23.95;27.45;101162.38;5008813;28;20136;-61
2023/07/08 03:21:16;;;;;;;5.40;3.30;;;;;;;23.92;27.45;101156.34;5009134;28;20057;-62
2023/07/08 03:23:45;;;;;;;5.43;3.47;;;;;;;23.89;27.56;101165.16;5008705;28;20046;-60
2023/07/08 03:26:16;;;;;;;5.80;3.42;;;;;;;23.89;27.63;101170.75;5026148;28;20053;-61
2023/07/08 03:28:46;;;;;;;5.65;3.45;;;;;;;23.83;27.75;101164.06;5024938;28;20072;-59
2023/07/08 03:31:15;;;;;;;5.82;3.78;;;;;;;23.83;27.82;101174.41;5025673;28;20104;-60
2023/07/08 03:33:44;;;;;;;5.30;3.60;;;;;;;23.83;27.63;101171.59;5024898;28;20061;-61
2023/07/08 03:36:22;;;;;;;6.32;3.42;;;;;;;23.82;27.86;101178.28;5008775;28;20042;-60
2023/07/08 03:38:51;;;;;;;6.10;3.90;;;;;;;23.79;27.83;101173.97;5047454;23;20040;-59
2023/07/08 03:41:19;;;;;;;6.53;4.07;;;;;;;23.78;28.08;101172.25;5050711;28;20055;-59
2023/07/08 03:43:47;;;;;;;5.00;3.38;;;;;;;23.77;27.90;101170.53;5035028;28;20048;-58
2023/07/08 03:46:18;;;;;;;5.20;3.35;;;;;;;23.79;28.37;101167.53;5058298;28;20052;-59
2023/07/08 03:48:48;;;;;;;5.88;3.67;;;;;;;23.77;28.11;101164.94;5047035;28;20041;-59
2023/07/08 03:51:22;;;;;;;4.80;3.40;;;;;;;23.76;28.45;101175.25;5047848;28;20111;-58
2023/07/08 03:53:51;;;;;;;6.00;3.60;;;;;;;23.72;28.33;101168.34;5044165;28;20041;-58
2023/07/08 03:56:19;;;;;;;5.22;3.45;;;;;;;23.73;28.30;101169.22;5044020;28;20045;-58
2023/07/08 03:58:47;;;;;;;5.38;3.70;;;;;;;23.72;28.28;101161.91;5042209;28;20071;-59
2023/07/08 04:01:16;;;;;;;4.95;3.55;;;;;;;23.71;28.53;101162.97;5059328;28;20091;-57
2023/07/08 04:03:45;;;;;;;4.97;3.70;;;;;;;23.69;28.09;101167.91;5044895;28;20037;-59
2023/07/08 04:06:15;;;;;;;4.53;3.38;;;;;;;23.68;28.32;101175.44;5044541;28;20040;-57
2023/07/08 04:08:43;;;;;;;4.80;3.40;;;;;;;23.64;28.58;101190.91;5043305;28;20559;-59
2023/07/08 04:11:13;;;;;;;6.15;3.65;;;;;;;23.65;28.65;101191.78;5045618;28;20467;-59
2023/07/08 04:13:41;;;;;;;4.97;3.28;;;;;;;23.62;28.81;101195.84;5042450;28;20463;-57
2023/07/08 04:16:15;;;;;;;5.82;3.72;;;;;;;23.64;29.12;101199.31;5040848;28;20041;-59
2023/07/08 04:18:47;;;;;;;6.13;3.30;;;;;;;23.60;29.25;101203.56;5042540;28;20037;-59
2023/07/08 04:21:17;;;;;;;4.93;3.45;;;;;;;23.63;29.09;101200.38;5046955;28;20699;-59
2023/07/08 04:23:47;;;;;;;;;;;;;;;23.31;29.24;101202.03;5047658;28;20057;-59
2023/07/08 04:26:16;;;;;;;4.65;3.13;;;;;;;23.55;28.80;101196.91;5040333;28;20015;-57
2023/07/08 04:28:43;;;;;;;5.40;3.60;;;;;;;23.58;28.83;101197.34;5045068;28;20068;-58
2023/07/08 04:31:12;;;;;;;5.53;3.83;;;;;;;23.58;28.61;101191.75;5044413;28;20274;-58
2023/07/08 04:33:40;;;;;;;5.43;3.60;;;;;;;23.55;28.77;101194.13;5048690;28;20082;-59
2023/07/08 04:36:13;;;;;;;4.63;3.20;;;;;;;23.59;29.14;101198.19;5045026;28;20044;-58
2023/07/08 04:38:46;;;;;;;4.68;3.17;;;;;;;23.57;29.08;101191.97;5040866;28;20067;-58
2023/07/08 04:41:14;;;;;;;5.68;3.40;;;;;;;23.52;28.95;101189.81;5044506;28;20128;-58
2023/07/08 04:43:42;;;;;;;5.38;3.50;;;;;;;23.52;28.76;101195.41;5038631;28;20059;-58
2023/07/08 04:46:20;;;;;;;6.38;3.40;;;;;;;23.55;28.86;101199.72;5044838;28;20059;-59
2023/07/08 04:48:48;;;;;;;5.68;3.65;;;;;;;23.49;28.48;101201.44;5041816;28;20519;-56
2023/07/08 04:51:15;;;;;;;5.53;3.45;;;;;;;23.49;28.77;101194.97;5041962;28;20037;-60
2023/07/08 04:53:45;;;;;;;4.65;3.03;;;;;;;23.51;28.45;101195.59;5043760;28;20052;-56
2023/07/08 04:56:13;;;;;;;5.05;3.22;;;;;;;23.47;28.72;101195.19;5043320;28;20541;-58
2023/07/08 04:58:41;;;;;;;5.97;3.70;;;;;;;23.47;28.54;101189.59;5042697;28;20049;-57
2023/07/08 05:01:08;;;;;;;5.55;3.38;;;;;;;23.48;28.27;101201.63;5042743;28;20055;-56
2023/07/08 05:03:36;;;;;;;6.25;3.35;;;;;;;23.46;28.48;101193.47;5041975;28;20060;-56
2023/07/08 05:06:04;;;;;;;6.28;3.13;;;;;;;23.45;28.58;101193.66;5039578;28;20041;-58
2023/07/08 05:08:32;;;;;;;4.88;3.15;;;;;;;23.43;28.55;101190.22;5041884;28;20041;-57
2023/07/08 05:11:01;;;;;;;5.90;3.22;;;;;;;23.44;28.55;101192.81;5043753;28;20556;-57
2023/07/08 05:13:29;;;;;;;5.13;2.88;;;;;;;23.42;28.41;101186.56;5036224;28;20052;-58
2023/07/08 05:15:57;;;;;;;4.38;2.97;;;;;;;23.43;28.48;101191.06;5045718;28;20360;-59
2023/07/08 05:18:25;;;;;;;5.53;3.40;;;;;;;23.44;28.46;101198.38;5036733;28;20072;-60
2023/07/08 05:20:54;;;;;;;4.88;3.22;;;;;;;23.46;28.30;101206.56;5040562;28;20049;-57
2023/07/08 05:23:22;;;;;;;5.00;2.92;;;;;;;23.49;28.36;101203.34;5044310;28;20060;-57
2023/07/08 05:25:50;;;;;;;4.50;2.90;;;;;;;23.52;28.34;101200.13;5033023;28;20509;-58
2023/07/08 05:28:21;;;;;;;5.63;3.30;;;;;;;23.60;28.39;101202.72;5044558;28;20059;-59
2023/07/08 05:30:53;;;;;;;5.15;2.97;;;;;;;23.65;28.36;101194.56;5042998;28;20080;-58
2023/07/08 05:33:21;;;;;;;4.38;2.70;;;;;;;23.65;28.35;101201.03;5044519;28;20053;-59
2023/07/08 05:35:49;;;;;;;5.88;3.35;;;;;;;23.72;28.07;101201.03;5044697;28;20041;-60
2023/07/08 05:38:18;;;;;;;5.18;3.10;;;;;;;23.79;27.65;101198.28;5041407;28;20419;-59
2023/07/08 05:40:50;;;;;;;4.18;2.90;;;;;;;23.86;27.58;101194.41;5040663;28;20412;-57
2023/07/08 05:43:18;;;;;;;4.40;2.90;;;;;;;23.88;27.64;101191.41;5041715;28;20041;-58
2023/07/08 05:45:48;;;;;;;5.03;3.30;;;;;;;23.97;27.41;101190.13;5043061;28;20041;-54
2023/07/08 05:48:36;;;;;;;5.70;3.20;;;;;;;23.99;27.44;101186.00;5037818;28;20122;-57
2023/07/08 05:51:04;;;;;;;4.50;2.97;;;;;;;24.03;27.54;101192.03;5042214;28;20045;-57
2023/07/08 05:53:32;;;;;;;4.93;3.03;;;;;;;24.07;27.24;101183.00;5038655;28;20476;-59
2023/07/08 05:56:00;;;;;;;5.07;2.95;;;;;;;24.10;27.07;101193.75;5038913;28;20064;-55
2023/07/08 05:58:28;;;;;;;4.03;2.78;;;;;;;24.13;27.08;101184.94;5031478;28;20095;-59
2023/07/08 06:00:58;;;;;;;4.80;2.95;;;;;;;24.19;26.40;101188.81;5035248;28;20437;-57
2023/07/08 06:03:27;;;;;;;4.13;3.03;;;;;;;24.20;26.45;101186.88;5034727;28;20060;-58
2023/07/08 06:05:55;;;;;;;4.47;2.95;;;;;;;24.25;26.35;101187.06;5035757;28;20051;-59
2023/07/08 06:08:23;;;;;;;4.68;2.88;;;;;;;24.28;26.50;101190.31;5029784;28;20045;-59
2023/07/08 06:10:51;;;;;;;4.82;3.30;;;;;;;24.34;26.35;101205.34;5034737;28;20033;-59
2023/07/08 06:13:19;;;;;;;5.53;3.20;;;;;;;24.37;26.25;101202.16;5030046;28;20149;-59
2023/07/08 06:15:47;;;;;;;4.95;2.88;;;;;;;24.41;26.29;101209.91;5033988;28;20095;-59
2023/07/08 06:18:17;;;;;;;4.47;3.10;;;;;;;24.48;26.10;101199.56;5029383;28;20056;-60
2023/07/08 06:20:52;;;;;;;4.35;3.17;;;;;;;24.56;25.45;101206.88;5033209;28;20235;-58
2023/07/08 06:23:20;;;;;;;5.05;3.05;;;;;;;24.59;25.69;101202.75;5035070;28;20083;-59
2023/07/08 06:25:48;;;;;;;4.40;2.67;;;;;;;24.64;25.67;101203.84;5038393;28;20050;-60
2023/07/08 06:28:15;;;;;;;4.38;2.90;;;;;;;24.69;25.47;101203.19;5032120;28;20037;-59
2023/07/08 06:30:44;;;;;;;4.93;3.10;;;;;;;24.76;25.26;101204.88;5035519;28;20137;-58
2023/07/08 06:33:12;;;;;;;4.85;3.33;;;;;;;24.80;25.33;101200.56;5035448;28;20045;-60
2023/07/08 06:35:42;;;;;;;5.30;3.30;;;;;;;24.89;25.25;101204.84;5038104;28;20126;-60
2023/07/08 06:38:11;;;;;;;4.72;3.05;;;;;;;24.94;25.10;101204.22;5032033;28;20045;-58
2023/07/08 06:40:39;;;;;;;5.60;3.53;;;;;;;25.00;24.84;101208.91;5037908;28;20119;-58
2023/07/08 06:43:07;;;;;;;4.65;3.10;;;;;;;25.06;25.00;101215.59;5037125;28;20402;-59
2023/07/08 06:45:49;;;;;;;7.10;3.33;;;;;;;25.12;24.93;101197.91;5038011;28;20400;-59
2023/07/08 06:48:17;;;;;;;4.20;2.60;;;;;;;25.19;25.10;101201.50;5031908;28;20048;-59
2023/07/08 06:50:49;;;;;;;4.95;3.13;;;;;;;25.30;24.88;101198.03;5036420;28;20110;-59
2023/07/08 06:53:17;;;;;;;5.28;3.53;;;;;;;25.32;24.82;101192.16;5036892;28;20393;-58
2023/07/08 06:55:45;;;;;;;4.88;3.30;;;;;;;25.41;24.92;101185.22;5036606;28;20455;-57
2023/07/08 06:58:14;;;;;;;6.03;3.33;;;;;;;25.48;24.64;101191.66;5033976;28;20045;-56
2023/07/08 07:00:43;;;;;;;4.75;3.05;;;;;;;25.57;24.89;101202.41;5038572;28;20045;-58
2023/07/08 07:03:11;;;;;;;4.50;2.97;;;;;;;25.62;24.66;101202.59;5036677;28;21256;-59
2023/07/08 07:05:40;;;;;;;7.22;3.75;;;;;;;25.71;24.25;101203.19;5036056;28;20041;-58
2023/07/08 07:08:09;;;;;;;4.00;3.08;;;;;;;25.79;24.61;101185.22;5036326;28;20052;-55
2023/07/08 07:10:38;;;;;;;4.43;3.13;;;;;;;25.85;24.43;101181.50;5047697;28;20319;-69
2023/07/08 07:13:06;;;;;;;4.03;2.90;;;;;;;25.91;24.44;101187.06;5044722;28;20064;-69
2023/07/08 07:15:34;;;;;;;5.30;3.28;;;;;;;25.98;24.23;101185.06;5045886;28;20355;-68
2023/07/08 07:18:02;;;;;;;5.68;3.30;;;;;;;26.07;24.15;101190.41;5046004;28;20601;-68
2023/07/08 07:20:30;;;;;;;5.93;3.60;;;;;;;26.13;24.17;101183.91;5047258;28;20064;-68
2023/07/08 07:22:58;;;;;;;5.18;3.30;;;;;;;26.21;23.80;101184.47;5044455;28;20056;-69
2023/07/08 07:25:27;;;;;;;4.50;3.13;;;;;;;26.30;23.61;101199.03;5038765;28;20399;-69
2023/07/08 07:27:55;;;;;;;5.32;3.60;;;;;;;26.34;23.54;101189.09;5044965;28;20124;-69
2023/07/08 07:30:23;;;;;;;5.35;3.67;;;;;;;26.41;23.62;101192.69;5039601;28;20051;-69
2023/07/08 07:32:51;;;;;;;6.00;3.25;;;;;;;26.47;23.57;101186.13;5035865;28;20055;-69
2023/07/08 07:35:19;;;;;;;5.65;3.80;;;;;;;26.55;23.63;101187.78;5040211;28;20052;-69
2023/07/08 07:37:47;;;;;;;4.28;3.13;;;;;;;26.61;23.13;101189.69;5059420;28;20080;-69
2023/07/08 07:40:15;;;;;;;6.60;3.78;;;;;;;26.68;23.04;101191.34;5041875;28;20065;-69
2023/07/08 07:42:46;;;;;;;5.32;3.42;;;;;;;26.77;22.66;101191.03;5036822;28;20048;-69
2023/07/08 07:45:14;;;;;;;5.15;3.72;;;;;;;26.80;22.35;101190.56;5052072;28;20075;-69
2023/07/08 07:47:42;;;;;;;5.40;3.70;;;;;;;26.87;22.50;101191.38;5040174;28;20475;-69
2023/07/08 07:50:11;;;;;;;5.15;3.42;;;;;;;26.92;22.43;101203.59;5046823;28;20049;-69
2023/07/08 07:52:39;;;;;;;4.90;3.45;;;;;;;26.98;22.38;101202.66;5046761;28;20144;-69
2023/07/08 07:55:08;;;;;;;5.85;3.75;;;;;;;27.04;22.00;101200.84;5044883;28;20099;-72
2023/07/08 07:57:36;;;;;;;4.95;3.75;;;;;;;27.08;21.68;101200.16;5053489;28;20127;-70
2023/07/08 08:00:06;;;;;;;5.43;3.95;;;;;;;27.15;21.09;101202.88;5049665;28;20554;-74
2023/07/08 08:02:40;;;;;;;6.82;3.83;;;;;;;27.17;21.61;101197.06;5039902;28;20541;-69
2023/07/08 08:05:08;;;;;;;5.30;3.58;;;;;;;27.22;21.94;101200.00;5031836;28;20922;-69
2023/07/08 08:07:37;;;;;;;5.38;3.60;;;;;;;27.26;22.09;101204.06;5050793;28;20514;-68
2023/07/08 08:10:05;;;;;;;5.15;3.83;;;;;;;27.32;22.16;101203.13;5044737;28;20311;-70
2023/07/08 08:12:33;;;;;;;4.97;3.60;;;;;;;27.36;21.48;101207.19;5041582;28;20165;-68
2023/07/08 08:15:12;;;;;;;5.95;3.83;;;;;;;27.44;21.39;101213.34;5043438;28;20700;-69
2023/07/08 08:17:40;;;;;;;5.68;4.05;;;;;;;27.50;21.43;101211.50;5046638;28;20040;-68
2023/07/08 08:20:09;;;;;;;6.00;4.22;;;;;;;27.56;21.16;101215.31;5046202;28;20588;-69
2023/07/08 08:22:37;;;;;;;6.15;3.80;;;;;;;27.62;21.17;101215.22;5038927;28;20041;-69
2023/07/08 08:25:06;;;;;;;5.55;3.80;;;;;;;27.70;21.43;101214.91;5042019;28;20045;-67
2023/07/08 08:27:34;;;;;;;6.68;3.65;;;;;;;27.76;21.47;101222.41;5038392;28;20148;-71
2023/07/08 08:30:02;;;;;;;5.97;3.97;;;;;;;27.83;21.75;101223.16;5037436;28;20053;-71
2023/07/08 08:32:31;;;;;;;6.20;3.80;;;;;;;27.92;20.60;101220.00;5045171;28;20489;-72
2023/07/08 08:34:59;;;;;;;6.80;3.75;;;;;;;27.97;20.89;101228.56;5044496;28;20059;-72
2023/07/08 08:37:30;;;;;;;5.43;3.90;;;;;;;28.03;21.34;101230.41;5051939;28;20186;-72
2023/07/08 08:39:58;;;;;;;6.18;4.10;;;;;;;28.09;21.43;101233.13;5045857;28;20119;-72
2023/07/08 08:42:29;;;;;;;5.70;3.70;;;;;;;28.20;20.92;101226.63;5044972;28;20545;-72
2023/07/08 08:44:59;;;;;;;5.50;4.00;;;;;;;28.25;20.96;101234.41;5043940;28;20052;-71
2023/07/08 08:47:39;;;;;;;5.40;3.85;;;;;;;28.34;20.33;101227.31;5039670;28;20045;-72
2023/07/08 08:50:24;;;;;;;6.28;4.32;;;;;;;28.43;20.14;101227.81;5042166;28;20389;-71
2023/07/08 08:52:54;;;;;;;6.53;4.28;;;;;;;28.46;20.29;101216.03;5042376;28;20061;-72
2023/07/08 08:55:24;;;;;;;5.95;4.20;;;;;;;28.54;19.77;101221.31;5043448;28;20045;-72
2023/07/08 08:58:03;;;;;;;5.47;3.72;;;;;;;28.63;19.64;101211.41;5044208;28;20840;-72
2023/07/08 09:00:38;;;;;;;6.00;3.83;;;;;;;28.67;19.80;101223.91;5044014;28;20725;-72
2023/07/08 09:03:12;;;;;;;5.97;3.90;;;;;;;28.75;19.31;101231.16;5043463;28;20061;-72
2023/07/08 09:05:40;;;;;;;5.07;3.67;;;;;;;28.78;19.61;101227.81;5044018;28;20033;-72
2023/07/08 09:08:15;;;;;;;5.35;3.90;;;;;;;28.87;19.87;101223.53;5043632;28;20059;-72
2023/07/08 09:10:50;;;;;;;4.93;3.60;;;;;;;28.94;19.87;101229.88;5057914;28;20059;-71
2023/07/08 09:13:24;;;;;;;5.13;3.80;;;;;;;29.00;19.50;101228.91;5055256;28;20057;-71
2023/07/08 09:15:59;;;;;;;4.90;3.33;;;;;;;29.06;19.43;101229.88;5049278;28;20462;-72
2023/07/08 09:18:37;;;;;;;4.78;3.15;;;;;;;29.14;19.68;101235.97;5038127;28;20049;-72
2023/07/08 09:21:17;;;;;;;4.28;2.78;;;;;;;29.20;19.33;101226.50;5043829;28;21071;-71
2023/07/08 09:23:48;;;;;;;5.10;3.40;;;;;;;29.27;20.08;101226.41;5038170;28;20410;-72
2023/07/08 09:26:21;;;;;;;5.22;3.10;;;;;;;29.34;19.99;101238.41;5041149;28;20037;-72
2023/07/08 09:28:48;;;;;;;4.40;3.22;;;;;;;29.40;20.01;101226.13;5041645;28;20319;-72
2023/07/08 09:31:23;;;;;;;5.07;3.47;;;;;;;29.52;18.44;101226.91;5042180;28;20022;-72
2023/07/08 09:33:54;;;;;;;4.95;3.25;;;;;;;29.59;19.54;101221.97;5040183;28;20064;-72
2023/07/08 09:36:25;;;;;;;4.50;3.22;;;;;;;29.67;19.03;101232.03;5042108;28;20119;-72
2023/07/08 09:38:54;;;;;;;4.38;3.33;;;;;;;29.73;19.26;101229.06;5035241;28;20085;-72
2023/07/08 09:41:34;;;;;;;5.00;3.35;;;;;;;29.82;18.55;101229.53;5042887;28;20041;-72
2023/07/08 09:44:11;;;;;;;5.28;3.70;;;;;;;29.88;18.57;101228.50;5041407;28;20045;-72
2023/07/08 09:46:39;;;;;;;4.70;3.33;;;;;;;29.91;19.03;101228.00;5043693;28;20045;-72
2023/07/08 09:49:17;;;;;;;6.20;3.70;;;;;;;30.00;18.62;101214.31;5045708;28;20041;-72
2023/07/08 09:51:45;;;;;;;4.25;2.80;;;;;;;30.01;18.71;101210.38;5043003;28;20065;-71
2023/07/08 09:54:13;;;;;;;5.22;2.80;;;;;;;30.07;19.04;101217.84;5043515;28;20513;-72
2023/07/08 09:56:44;;;;;;;5.00;3.15;;;;;;;30.16;19.25;101229.56;5052325;28;20057;-72
2023/07/08 09:59:14;;;;;;;5.22;3.15;;;;;;;30.22;19.14;101209.63;5058161;28;21113;-71
2023/07/08 10:01:44;;;;;;;5.07;3.00;;;;;;;30.29;19.21;101206.66;5041376;28;20132;-72
2023/07/08 10:04:14;;;;;;;5.13;3.28;;;;;;;30.36;18.55;101205.38;5042985;28;20045;-72
2023/07/08 10:06:46;;;;;;;5.72;3.42;;;;;;;30.44;17.91;101212.53;5043359;28;20522;-71
2023/07/08 10:09:19;;;;;;;4.82;3.40;;;;;;;30.49;18.05;101207.00;5042901;28;20724;-72
2023/07/08 10:11:52;;;;;;;5.40;3.70;;;;;;;30.56;17.83;101209.63;5043051;28;20428;-71
2023/07/08 10:14:27;;;;;;;5.07;3.35;;;;;;;30.61;17.56;101207.72;5042840;28;20435;-71
2023/07/08 10:16:55;;;;;;;5.00;3.33;;;;;;;30.63;18.31;101216.81;5042292;28;20083;-72
2023/07/08 10:19:25;;;;;;;4.68;3.40;;;;;;;30.69;18.22;101204.47;5041834;28;20044;-72
2023/07/08 10:22:02;;;;;;;5.47;3.40;;;;;;;30.77;17.53;101208.84;5042209;28;20061;-73
2023/07/08 10:24:42;;;;;;;5.45;3.38;;;;;;;30.82;17.96;101200.44;5037913;28;20136;-72
2023/07/08 10:27:20;;;;;;;5.28;3.30;;;;;;;30.87;17.04;101205.31;5040491;28;20104;-71
2023/07/08 10:29:55;;;;;;;4.93;3.17;;;;;;;30.89;17.14;101184.16;5040788;28;20037;-72
2023/07/08 10:32:38;;;;;;;5.38;2.90;;;;;;;30.95;17.68;101185.06;5041002;28;20385;-72
2023/07/08 10:35:18;;;;;;;5.15;3.60;;;;;;;30.96;17.43;101192.44;5042109;28;20068;-73
2023/07/08 10:38:04;;;;;;;4.80;2.95;;;;;;;31.00;17.45;101191.63;5055459;28;20527;-72
2023/07/08 10:40:40;;;;;;;4.75;3.17;;;;;;;31.03;17.23;101188.28;5040806;28;20144;-73
2023/07/08 10:43:32;;;;;;;5.32;3.03;;;;;;;31.06;17.69;101176.47;5040979;28;20554;-73
2023/07/08 10:46:04;;;;;;;;;;;;;;;30.78;18.52;101173.81;5041705;28;20420;-73
2023/07/08 10:48:48;;;;;;;4.68;2.90;;;;;;;31.15;17.95;101179.69;5040923;28;19928;-72
2023/07/08 10:51:27;;;;;;;4.57;3.05;;;;;;;31.25;17.42;101184.63;5043423;28;20535;-73
2023/07/08 10:54:28;;;;;;;5.00;3.08;;;;;;;31.26;17.57;101191.97;5041504;28;20049;-73
2023/07/08 10:57:06;;;;;;;4.63;3.20;;;;;;;31.35;17.76;101179.09;5041087;28;20428;-73
2023/07/08 10:59:50;;;;;;;6.25;3.40;;;;;;;31.41;17.38;101181.69;5042626;28;20052;-73
2023/07/08 11:02:34;;;;;;;4.28;2.92;;;;;;;31.48;17.41;101181.50;5038755;28;20044;-72
2023/07/08 11:05:18;;;;;;;4.53;3.03;;;;;;;31.52;17.15;101175.03;5053018;28;20622;-73
2023/07/08 11:07:54;;;;;;;5.07;3.20;;;;;;;31.59;16.99;101175.69;5039906;28;20383;-72
2023/07/08 11:10:29;;;;;;;4.85;3.35;;;;;;;31.66;17.75;101178.28;5045179;28;20036;-73
2023/07/08 11:13:03;;;;;;;4.53;2.83;;;;;;;31.72;17.71;101171.63;5059831;28;20091;-73
2023/07/08 11:15:37;;;;;;;5.35;3.20;;;;;;;31.79;17.64;101171.38;5061772;28;20040;-73
2023/07/08 11:18:12;;;;;;;4.90;2.78;;;;;;;31.85;17.42;101175.97;5043846;28;20083;-73
2023/07/08 11:20:45;;;;;;;4.68;3.00;;;;;;;31.89;17.01;101178.00;5045439;28;20033;-73
2023/07/08 11:23:26;;;;;;;6.13;3.22;;;;;;;31.97;16.75;101185.16;5046072;28;20049;-72
2023/07/08 11:26:05;;;;;;;5.72;3.42;;;;;;;32.00;16.63;101173.25;5045816;28;20492;-73
2023/07/08 11:28:33;;;;;;;5.35;3.33;;;;;;;32.03;17.10;101172.75;5042283;28;20368;-73
2023/07/08 11:31:03;;;;;;;4.78;2.85;;;;;;;32.11;17.37;101174.22;5043965;28;20049;-73
2023/07/08 11:33:33;;;;;;;4.97;3.00;;;;;;;32.14;17.19;101160.41;5045461;28;20149;-72
2023/07/08 11:36:04;;;;;;;4.93;2.92;;;;;;;32.20;17.36;101156.47;5046710;28;20094;-72
2023/07/08 11:38:35;;;;;;;4.65;2.97;;;;;;;32.24;17.00;101163.28;5044510;28;20136;-73
2023/07/08 11:41:05;;;;;;;4.43;2.70;;;;;;;32.29;16.92;101157.69;5045265;28;20396;-72
2023/07/08 11:43:38;;;;;;;4.78;3.30;;;;;;;32.36;17.54;101148.94;5045155;28;20135;-73